createdAt,value
2017-09-26T00:00:45.185Z,10.77
2017-09-26T00:03:11.413Z,12.37
2017-09-26T00:05:37.688Z,10.80
2017-09-26T00:08:03.896Z,19.33
2017-09-26T00:10:30.126Z,13.83
2017-09-26T00:12:56.396Z,12.37
2017-09-26T00:15:22.621Z,20.07
2017-09-26T00:17:48.833Z,11.50
2017-09-26T00:20:15.093Z,14.30
2017-09-26T00:22:41.336Z,10.60
2017-09-26T00:25:07.580Z,12.70
2017-09-26T00:27:33.848Z,14.87
2017-09-26T00:30:00.076Z,13.53
2017-09-26T00:32:26.313Z,11.40
2017-09-26T00:34:52.581Z,13.10
2017-09-26T00:37:18.807Z,12.27
2017-09-26T00:39:45.012Z,10.40
2017-09-26T00:42:11.284Z,13.67
2017-09-26T00:44:37.525Z,13.00
2017-09-26T00:47:03.760Z,14.27
2017-09-26T00:49:30.035Z,22.37
2017-09-26T00:51:56.255Z,17.10
2017-09-26T00:54:22.500Z,17.73
2017-09-26T00:56:48.777Z,18.07
2017-09-26T00:59:15.006Z,13.87
2017-09-26T01:01:41.233Z,12.17
2017-09-26T01:04:07.509Z,11.87
2017-09-26T01:06:33.736Z,11.20
2017-09-26T01:08:59.974Z,11.50
2017-09-26T01:11:26.256Z,12.87
2017-09-26T01:13:52.484Z,13.27
2017-09-26T01:16:18.715Z,11.03
2017-09-26T01:18:44.995Z,11.83
2017-09-26T01:21:11.210Z,10.27
2017-09-26T01:23:37.423Z,10.37
2017-09-26T01:26:03.680Z,17.30
2017-09-26T01:28:29.889Z,11.30
2017-09-26T01:30:56.111Z,11.53
2017-09-26T01:33:22.398Z,10.33
2017-09-26T01:35:48.634Z,11.13
2017-09-26T01:38:14.857Z,14.90
2017-09-26T01:40:41.144Z,10.33
2017-09-26T01:43:07.374Z,9.90
2017-09-26T01:45:33.607Z,10.80
2017-09-26T01:47:59.879Z,17.90
2017-09-26T01:50:26.108Z,17.33
2017-09-26T01:52:52.346Z,12.10
2017-09-26T01:55:18.615Z,16.40
2017-09-26T01:57:44.834Z,15.80
2017-09-26T02:00:11.055Z,12.80
2017-09-26T02:02:37.316Z,12.70
2017-09-26T02:05:03.541Z,19.33
2017-09-26T02:07:29.782Z,13.70
2017-09-26T02:09:56.097Z,17.20
2017-09-26T02:12:22.322Z,12.20
2017-09-26T02:14:48.547Z,21.00
2017-09-26T02:17:14.814Z,14.40
2017-09-26T02:19:41.038Z,15.53
2017-09-26T02:22:07.265Z,18.30
2017-09-26T02:24:33.551Z,18.87
2017-09-26T02:26:59.773Z,19.87
2017-09-26T02:29:26.010Z,37.33
2017-09-26T02:31:52.288Z,15.93
2017-09-26T02:34:18.537Z,17.30
2017-09-26T02:36:44.759Z,14.23
2017-09-26T02:39:11.032Z,12.53
2017-09-26T02:41:37.270Z,36.60
2017-09-26T02:44:03.490Z,19.30
2017-09-26T02:46:29.790Z,20.27
2017-09-26T02:48:56.011Z,22.27
2017-09-26T02:51:22.243Z,17.60
2017-09-26T02:53:48.528Z,12.80
2017-09-26T02:56:14.763Z,29.13
2017-09-26T02:58:40.998Z,19.40
2017-09-26T03:01:07.270Z,12.43
2017-09-26T03:03:33.500Z,24.17
2017-09-26T03:05:59.739Z,24.03
2017-09-26T03:08:26.028Z,18.70
2017-09-26T03:10:52.264Z,25.43
2017-09-26T03:13:18.484Z,18.13
2017-09-26T03:15:44.759Z,23.30
2017-09-26T03:18:11.024Z,19.70
2017-09-26T03:20:37.280Z,24.57
2017-09-26T03:23:03.559Z,19.47
2017-09-26T03:25:29.898Z,21.97
2017-09-26T03:27:56.126Z,22.20
2017-09-26T03:30:22.422Z,26.33
2017-09-26T03:32:48.664Z,16.07
2017-09-26T03:35:14.889Z,29.63
2017-09-26T03:37:41.149Z,36.80
2017-09-26T03:40:07.384Z,23.17
2017-09-26T03:42:33.621Z,18.17
2017-09-26T03:44:59.886Z,22.00
2017-09-26T03:47:26.115Z,31.20
2017-09-26T03:49:52.343Z,24.13
2017-09-26T03:52:18.602Z,15.73
2017-09-26T03:54:44.830Z,17.20
2017-09-26T03:57:12.070Z,22.70
2017-09-26T03:59:38.336Z,18.80
2017-09-26T04:02:04.579Z,20.03
2017-09-26T04:04:30.824Z,23.27
2017-09-26T04:06:57.123Z,21.50
2017-09-26T04:09:23.352Z,24.83
2017-09-26T04:11:49.606Z,24.87
2017-09-26T04:14:15.886Z,21.63
2017-09-26T04:16:42.105Z,20.83
2017-09-26T04:19:08.335Z,20.60
2017-09-26T04:21:34.675Z,20.40
2017-09-26T04:24:00.904Z,34.23
2017-09-26T04:26:27.152Z,31.50
2017-09-26T04:28:53.442Z,25.40
2017-09-26T04:31:19.657Z,29.00
2017-09-26T04:33:45.895Z,23.33
2017-09-26T04:36:12.173Z,17.03
2017-09-26T04:38:38.386Z,23.00
2017-09-26T04:41:04.618Z,30.93
2017-09-26T04:43:30.911Z,20.37
2017-09-26T04:45:57.151Z,27.20
2017-09-26T04:48:23.372Z,26.17
2017-09-26T04:50:49.645Z,29.27
2017-09-26T04:53:15.861Z,25.17
2017-09-26T04:55:42.071Z,17.50
2017-09-26T04:58:08.412Z,25.07
2017-09-26T05:00:34.652Z,21.33
2017-09-26T05:03:00.895Z,19.17
2017-09-26T05:05:27.232Z,25.30
2017-09-26T05:07:53.460Z,18.87
2017-09-26T05:10:19.710Z,24.47
2017-09-26T05:12:45.990Z,40.47
2017-09-26T05:15:12.212Z,29.87
2017-09-26T05:17:38.438Z,19.87
2017-09-26T05:20:04.676Z,16.73
2017-09-26T05:22:30.911Z,25.73
2017-09-26T05:24:57.154Z,19.63
2017-09-26T05:27:23.431Z,25.60
2017-09-26T05:29:49.654Z,26.63
2017-09-26T05:32:15.864Z,23.23
2017-09-26T05:34:42.117Z,26.33
2017-09-26T05:37:08.353Z,27.20
2017-09-26T05:39:34.597Z,25.50
2017-09-26T05:42:00.872Z,39.50
2017-09-26T05:44:27.108Z,26.13
2017-09-26T05:46:53.347Z,27.33
2017-09-26T05:49:19.627Z,29.00
2017-09-26T05:51:45.846Z,30.27
2017-09-26T05:54:12.068Z,31.70
2017-09-26T05:56:38.349Z,36.17
2017-09-26T05:59:04.574Z,25.37
2017-09-26T06:01:30.827Z,19.03
2017-09-26T06:03:57.097Z,34.73
2017-09-26T06:06:23.317Z,20.80
2017-09-26T06:08:49.550Z,43.07
2017-09-26T06:11:15.827Z,32.37
2017-09-26T06:13:42.053Z,20.33
2017-09-26T06:16:08.273Z,40.00
2017-09-26T06:18:34.545Z,32.87
2017-09-26T06:21:00.828Z,23.17
2017-09-26T06:23:27.068Z,33.97
2017-09-26T06:25:53.337Z,29.37
2017-09-26T06:28:19.585Z,33.03
2017-09-26T06:30:45.814Z,34.97
2017-09-26T06:33:12.074Z,25.07
2017-09-26T06:35:38.317Z,35.87
2017-09-26T06:38:04.552Z,32.63
2017-09-26T06:40:30.824Z,29.30
2017-09-26T06:42:57.063Z,27.60
2017-09-26T06:45:23.291Z,34.93
2017-09-26T06:47:49.559Z,20.63
2017-09-26T06:50:15.796Z,23.47
2017-09-26T06:52:42.031Z,31.73
2017-09-26T06:55:08.312Z,23.30
2017-09-26T06:57:34.536Z,31.00
2017-09-26T07:00:00.762Z,29.50
2017-09-26T07:02:27.019Z,30.40
2017-09-26T07:04:53.245Z,35.60
2017-09-26T07:07:19.476Z,32.33
2017-09-26T07:09:45.744Z,29.83
2017-09-26T07:12:11.966Z,24.27
2017-09-26T07:14:38.209Z,32.27
2017-09-26T07:17:04.503Z,25.10
2017-09-26T07:19:30.733Z,35.67
2017-09-26T07:21:56.961Z,28.80
2017-09-26T07:24:23.246Z,32.43
2017-09-26T07:26:49.504Z,36.80
2017-09-26T07:29:15.727Z,29.90
2017-09-26T07:31:42.004Z,33.63
2017-09-26T07:34:08.229Z,23.83
2017-09-26T07:36:34.470Z,22.10
2017-09-26T07:39:00.749Z,32.27
2017-09-26T07:41:26.977Z,31.50
2017-09-26T07:43:53.206Z,27.80
2017-09-26T07:46:19.485Z,46.77
2017-09-26T07:48:45.715Z,30.53
2017-09-26T07:51:11.948Z,48.93
2017-09-26T07:53:38.263Z,32.53
2017-09-26T07:56:04.508Z,43.43
2017-09-26T07:58:30.755Z,31.50
2017-09-26T08:00:57.271Z,29.33
2017-09-26T08:03:23.521Z,36.67
2017-09-26T08:05:49.771Z,35.23
2017-09-26T08:08:16.039Z,36.13
2017-09-26T08:10:42.279Z,32.93
2017-09-26T08:13:08.517Z,43.60
2017-09-26T08:15:34.797Z,33.80
2017-09-26T08:18:01.085Z,42.47
2017-09-26T08:20:27.327Z,28.83
2017-09-26T08:22:53.610Z,40.93
2017-09-26T08:25:19.855Z,34.33
2017-09-26T08:27:46.150Z,41.50
2017-09-26T08:30:12.432Z,46.33
2017-09-26T08:32:38.669Z,37.43
2017-09-26T08:35:04.908Z,36.10
2017-09-26T08:37:31.190Z,46.70
2017-09-26T08:39:57.406Z,51.17
2017-09-26T08:42:23.643Z,31.07
2017-09-26T08:44:49.898Z,49.40
2017-09-26T08:47:16.131Z,44.10
2017-09-26T08:49:43.065Z,55.03
2017-09-26T08:52:09.371Z,40.87
2017-09-26T08:54:35.609Z,36.83
2017-09-26T08:57:01.844Z,30.93
2017-09-26T08:59:28.103Z,76.83
2017-09-26T09:01:54.330Z,43.60
2017-09-26T09:04:20.547Z,39.80
2017-09-26T09:06:46.834Z,39.83
2017-09-26T09:09:13.067Z,34.17
2017-09-26T09:11:39.285Z,46.27
2017-09-26T09:14:05.565Z,34.30
2017-09-26T09:16:31.815Z,30.83
2017-09-26T09:18:58.055Z,40.13
2017-09-26T09:21:24.322Z,25.60
2017-09-26T09:23:50.546Z,44.20
2017-09-26T09:26:16.774Z,46.57
2017-09-26T09:28:43.046Z,32.17
2017-09-26T09:31:09.285Z,53.63
2017-09-26T09:33:35.564Z,40.50
2017-09-26T09:36:01.863Z,36.83
2017-09-26T09:38:28.081Z,63.13
2017-09-26T09:40:54.336Z,49.87
2017-09-26T09:43:20.565Z,49.93
2017-09-26T09:45:46.814Z,34.30
2017-09-26T09:48:13.042Z,50.40
2017-09-26T09:50:39.285Z,38.67
2017-09-26T09:53:05.498Z,41.97
2017-09-26T09:55:31.714Z,38.63
2017-09-26T09:57:57.999Z,46.57
2017-09-26T10:00:24.238Z,52.40
2017-09-26T10:02:50.467Z,39.13
2017-09-26T10:05:16.744Z,31.47
2017-09-26T10:07:42.937Z,52.30
2017-09-26T10:10:09.163Z,42.93
2017-09-26T10:12:35.435Z,45.43
2017-09-26T10:15:01.675Z,28.23
2017-09-26T10:17:27.893Z,29.93
2017-09-26T10:19:54.172Z,48.70
2017-09-26T10:22:20.416Z,32.77
2017-09-26T10:24:46.670Z,40.43
2017-09-26T10:27:12.936Z,38.37
2017-09-26T10:29:39.164Z,42.20
2017-09-26T10:32:05.391Z,38.23
2017-09-26T10:34:31.669Z,58.27
2017-09-26T10:36:57.892Z,36.73
2017-09-26T10:39:24.108Z,38.70
2017-09-26T10:41:50.370Z,60.50
2017-09-26T10:44:16.598Z,30.27
2017-09-26T10:46:42.835Z,34.97
2017-09-26T10:49:09.103Z,45.00
2017-09-26T10:51:35.337Z,35.23
2017-09-26T10:54:01.571Z,42.20
2017-09-26T10:56:27.831Z,52.17
2017-09-26T10:58:54.089Z,39.50
2017-09-26T11:01:20.332Z,50.77
2017-09-26T11:03:46.617Z,48.03
2017-09-26T11:06:12.817Z,37.63
2017-09-26T11:08:39.058Z,57.90
2017-09-26T11:11:05.355Z,40.07
2017-09-26T11:13:35.680Z,68.77
2017-09-26T11:16:01.980Z,27.47
2017-09-26T11:18:28.262Z,63.07
2017-09-26T11:20:54.485Z,44.27
2017-09-26T11:23:20.720Z,50.40
2017-09-26T11:25:48.116Z,36.03
2017-09-26T11:28:14.502Z,48.30
2017-09-26T11:30:40.730Z,33.87
2017-09-26T11:33:06.993Z,44.73
2017-09-26T11:35:33.211Z,41.90
2017-09-26T11:37:59.421Z,55.23
2017-09-26T11:40:25.686Z,35.57
2017-09-26T11:42:51.900Z,41.93
2017-09-26T11:45:19.968Z,54.63
2017-09-26T11:47:46.252Z,45.10
2017-09-26T11:50:12.696Z,48.67
2017-09-26T11:52:39.177Z,60.17
2017-09-26T11:55:05.457Z,34.83
2017-09-26T11:57:31.684Z,45.53
2017-09-26T11:59:57.945Z,62.47
2017-09-26T12:02:24.226Z,40.60
2017-09-26T12:04:50.453Z,43.10
2017-09-26T12:07:16.666Z,34.53
2017-09-26T12:09:42.922Z,27.40
2017-09-26T12:12:09.128Z,29.13
2017-09-26T12:14:35.369Z,43.00
2017-09-26T12:17:01.636Z,35.30
2017-09-26T12:19:27.909Z,47.60
2017-09-26T12:21:54.328Z,57.60
2017-09-26T12:24:20.599Z,33.70
2017-09-26T12:26:46.823Z,53.27
2017-09-26T12:29:13.066Z,34.67
2017-09-26T12:31:39.330Z,47.83
2017-09-26T12:34:05.539Z,63.07
2017-09-26T12:36:31.757Z,53.27
2017-09-26T12:38:58.046Z,38.57
2017-09-26T12:41:24.271Z,35.03
2017-09-26T12:43:50.489Z,46.30
2017-09-26T12:46:16.727Z,42.43
2017-09-26T12:48:42.999Z,30.90
2017-09-26T12:51:09.237Z,46.70
2017-09-26T12:53:35.500Z,33.50
2017-09-26T12:56:01.738Z,35.30
2017-09-26T12:58:27.971Z,32.37
2017-09-26T13:00:54.244Z,33.53
2017-09-26T13:03:20.485Z,36.17
2017-09-26T13:05:46.711Z,41.17
2017-09-26T13:08:12.951Z,48.30
2017-09-26T13:10:39.177Z,38.90
2017-09-26T13:13:05.407Z,41.73
2017-09-26T13:15:31.688Z,39.03
2017-09-26T13:17:57.920Z,37.73
2017-09-26T13:20:24.158Z,31.67
2017-09-26T13:22:50.443Z,31.73
2017-09-26T13:25:16.661Z,33.57
2017-09-26T13:27:42.883Z,56.70
2017-09-26T13:30:09.153Z,46.60
2017-09-26T13:32:35.384Z,39.03
2017-09-26T13:35:01.611Z,45.23
2017-09-26T13:37:27.885Z,46.73
2017-09-26T13:39:54.159Z,37.73
2017-09-26T13:42:20.414Z,45.77
2017-09-26T13:44:46.677Z,38.90
2017-09-26T13:47:12.895Z,41.60
2017-09-26T13:49:39.111Z,43.63
2017-09-26T13:52:05.400Z,47.43
2017-09-26T13:54:31.617Z,53.80
2017-09-26T13:56:57.824Z,49.47
2017-09-26T13:59:24.096Z,39.50
2017-09-26T14:01:50.325Z,24.90
2017-09-26T14:04:16.549Z,34.73
2017-09-26T14:06:42.811Z,27.40
2017-09-26T14:09:09.033Z,36.23
2017-09-26T14:11:35.257Z,39.37
2017-09-26T14:14:01.509Z,34.37
2017-09-26T14:16:27.741Z,32.33
2017-09-26T14:18:53.971Z,33.90
2017-09-26T14:21:20.251Z,30.60
2017-09-26T14:23:46.491Z,31.47
2017-09-26T14:26:12.702Z,38.97
2017-09-26T14:28:38.957Z,39.23
2017-09-26T14:31:05.216Z,38.03
2017-09-26T14:33:31.432Z,31.00
2017-09-26T14:35:57.688Z,46.37
2017-09-26T14:38:25.054Z,38.90
2017-09-26T14:40:51.272Z,40.50
2017-09-26T14:43:17.560Z,48.13
2017-09-26T14:45:43.788Z,36.23
2017-09-26T14:48:10.014Z,31.57
2017-09-26T14:50:36.289Z,51.90
2017-09-26T14:53:02.527Z,38.80
2017-09-26T14:55:28.778Z,42.50
2017-09-26T14:57:55.041Z,44.20
2017-09-26T15:00:21.258Z,36.40
2017-09-26T15:02:47.476Z,40.77
2017-09-26T15:05:13.732Z,42.80
2017-09-26T15:07:39.961Z,49.03
2017-09-26T15:10:06.174Z,37.70
2017-09-26T15:12:32.427Z,39.90
2017-09-26T15:14:58.663Z,40.20
2017-09-26T15:17:24.905Z,36.80
2017-09-26T15:19:51.185Z,40.83
2017-09-26T15:22:17.424Z,48.80
2017-09-26T15:24:43.663Z,58.80
2017-09-26T15:27:09.935Z,47.17
2017-09-26T15:29:36.153Z,38.53
2017-09-26T15:32:02.402Z,42.30
2017-09-26T15:34:28.686Z,50.03
2017-09-26T15:36:55.078Z,43.23
2017-09-26T15:39:21.316Z,43.03
2017-09-26T15:41:47.630Z,52.87
2017-09-26T15:44:13.877Z,41.83
2017-09-26T15:46:40.153Z,27.30
2017-09-26T15:49:06.430Z,30.27
2017-09-26T15:51:32.688Z,42.43
2017-09-26T15:53:58.920Z,26.53
2017-09-26T15:56:25.180Z,35.27
2017-09-26T15:58:51.399Z,42.03
2017-09-26T16:01:17.615Z,25.47
2017-09-26T16:03:43.876Z,28.43
2017-09-26T16:06:10.089Z,21.90
2017-09-26T16:08:36.305Z,28.70
2017-09-26T16:11:02.610Z,28.63
2017-09-26T16:13:28.813Z,40.57
2017-09-26T16:15:55.030Z,39.57
2017-09-26T16:18:21.310Z,29.17
2017-09-26T16:20:47.532Z,41.40
2017-09-26T16:23:13.733Z,32.90
2017-09-26T16:25:40.000Z,28.30
2017-09-26T16:28:06.204Z,25.23
2017-09-26T16:30:32.418Z,34.23
2017-09-26T16:32:58.683Z,41.70
2017-09-26T16:35:27.965Z,31.67
2017-09-26T16:37:54.179Z,30.07
2017-09-26T16:40:20.434Z,37.60
2017-09-26T16:42:46.664Z,42.43
2017-09-26T16:45:12.891Z,33.37
2017-09-26T16:47:39.142Z,34.87
2017-09-26T16:50:05.368Z,23.63
2017-09-26T16:52:31.628Z,23.70
2017-09-26T16:54:57.979Z,35.73
2017-09-26T16:57:24.185Z,33.23
2017-09-26T16:59:50.403Z,37.50
2017-09-26T17:02:16.668Z,26.53
2017-09-26T17:04:42.886Z,31.60
2017-09-26T17:07:09.097Z,47.30
2017-09-26T17:09:35.359Z,26.13
2017-09-26T17:12:01.595Z,37.77
2017-09-26T17:14:27.832Z,30.07
2017-09-26T17:16:54.092Z,38.50
2017-09-26T17:19:20.313Z,28.40
2017-09-26T17:21:46.991Z,30.87
2017-09-26T17:24:13.262Z,34.63
2017-09-26T17:26:39.487Z,32.97
2017-09-26T17:29:05.695Z,27.10
2017-09-26T17:31:31.991Z,32.13
2017-09-26T17:33:58.270Z,36.77
2017-09-26T17:36:24.654Z,35.53
2017-09-26T17:38:50.946Z,28.00
2017-09-26T17:41:17.174Z,31.63
2017-09-26T17:43:43.384Z,24.47
2017-09-26T17:46:09.638Z,35.63
2017-09-26T17:48:35.863Z,32.53
2017-09-26T17:51:02.074Z,24.83
2017-09-26T17:53:28.341Z,20.23
2017-09-26T17:55:54.641Z,19.90
2017-09-26T17:58:20.846Z,24.57
2017-09-26T18:00:47.109Z,24.50
2017-09-26T18:03:13.327Z,27.37
2017-09-26T18:05:39.560Z,35.13
2017-09-26T18:08:05.830Z,16.43
2017-09-26T18:10:32.050Z,25.60
2017-09-26T18:12:58.280Z,18.90
2017-09-26T18:15:24.546Z,27.20
2017-09-26T18:17:50.758Z,26.03
2017-09-26T18:20:16.966Z,39.60
2017-09-26T18:22:43.231Z,29.13
2017-09-26T18:25:09.476Z,31.23
2017-09-26T18:27:35.717Z,21.80
2017-09-26T18:30:01.982Z,23.90
2017-09-26T18:32:28.214Z,34.13
2017-09-26T18:34:54.442Z,31.73
2017-09-26T18:37:20.720Z,27.43
2017-09-26T18:39:46.938Z,25.60
2017-09-26T18:42:13.161Z,22.23
2017-09-26T18:44:39.434Z,44.20
2017-09-26T18:47:05.664Z,32.40
2017-09-26T18:49:31.879Z,28.17
2017-09-26T18:51:58.152Z,28.33
2017-09-26T18:54:24.394Z,22.23
2017-09-26T18:56:50.641Z,34.57
2017-09-26T18:59:16.909Z,24.40
2017-09-26T19:01:43.185Z,27.37
2017-09-26T19:04:09.390Z,28.23
2017-09-26T19:06:35.660Z,22.60
2017-09-26T19:09:01.883Z,22.70
2017-09-26T19:11:28.093Z,24.63
2017-09-26T19:13:54.349Z,31.97
2017-09-26T19:16:20.562Z,26.80
2017-09-26T19:18:46.761Z,23.30
2017-09-26T19:21:13.022Z,26.63
2017-09-26T19:23:39.252Z,29.03
2017-09-26T19:26:05.465Z,32.63
2017-09-26T19:28:31.734Z,40.33
2017-09-26T19:30:57.964Z,36.77
2017-09-26T19:33:24.186Z,27.83
2017-09-26T19:35:50.446Z,38.43
2017-09-26T19:38:16.661Z,32.53
2017-09-26T19:40:42.892Z,25.17
2017-09-26T19:43:09.172Z,29.17
2017-09-26T19:45:35.386Z,33.97
2017-09-26T19:48:01.596Z,28.40
2017-09-26T19:50:27.863Z,31.97
2017-09-26T19:52:54.091Z,24.10
2017-09-26T19:55:20.317Z,39.53
2017-09-26T19:57:46.579Z,27.23
2017-09-26T20:00:12.794Z,40.00
2017-09-26T20:02:39.029Z,36.87
2017-09-26T20:05:05.322Z,19.00
2017-09-26T20:07:31.530Z,30.77
2017-09-26T20:09:57.770Z,35.57
2017-09-26T20:12:24.055Z,32.03
2017-09-26T20:14:50.268Z,32.07
2017-09-26T20:17:16.496Z,39.03
2017-09-26T20:19:42.746Z,29.73
2017-09-26T20:22:08.964Z,35.83
2017-09-26T20:24:35.182Z,27.00
2017-09-26T20:27:01.451Z,32.73
2017-09-26T20:32:00.051Z,20.73
2017-09-26T20:34:26.300Z,26.27
2017-09-26T20:36:52.526Z,27.07
2017-09-26T20:39:18.722Z,32.80
2017-09-26T20:41:45.029Z,24.80
2017-09-26T20:44:11.257Z,26.10
2017-09-26T20:46:37.486Z,27.20
2017-09-26T20:49:03.745Z,46.40
2017-09-26T20:51:30.005Z,50.53
2017-09-26T20:53:56.240Z,26.80
2017-09-26T20:56:22.537Z,34.60
2017-09-26T20:58:48.755Z,33.20
2017-09-26T21:01:14.973Z,42.23
2017-09-26T21:03:41.248Z,40.57
2017-09-26T21:06:07.485Z,37.43
2017-09-26T21:08:33.693Z,54.27
2017-09-26T21:10:59.949Z,36.87
2017-09-26T21:13:26.176Z,38.00
2017-09-26T21:15:52.404Z,50.07
2017-09-26T21:18:18.681Z,32.60
2017-09-26T21:20:44.904Z,31.33
2017-09-26T21:23:11.149Z,32.87
2017-09-26T21:25:37.427Z,63.63
2017-09-26T21:28:03.672Z,32.63
2017-09-26T21:30:29.900Z,37.60
2017-09-26T21:32:56.145Z,27.30
2017-09-26T21:35:22.391Z,36.43
2017-09-26T21:37:48.611Z,37.70
2017-09-26T21:40:14.891Z,36.07
2017-09-26T21:42:41.101Z,26.97
2017-09-26T21:45:07.371Z,39.00
2017-09-26T21:47:33.675Z,39.53
2017-09-26T21:49:59.900Z,26.33
2017-09-26T21:52:26.122Z,25.30
2017-09-26T21:54:52.392Z,38.63
2017-09-26T21:57:18.693Z,21.30
2017-09-26T21:59:44.914Z,42.73
2017-09-26T22:02:11.169Z,21.30
2017-09-26T22:04:37.382Z,30.30
2017-09-26T22:07:03.650Z,23.03
2017-09-26T22:09:29.907Z,20.20
2017-09-26T22:11:56.145Z,19.83
2017-09-26T22:14:22.414Z,28.53
2017-09-26T22:16:48.846Z,38.40
2017-09-26T22:19:15.089Z,24.57
2017-09-26T22:21:41.300Z,31.13
2017-09-26T22:24:07.570Z,26.90
2017-09-26T22:26:33.802Z,42.20
2017-09-26T22:29:00.041Z,27.27
2017-09-26T22:31:26.315Z,21.30
2017-09-26T22:33:52.548Z,19.17
2017-09-26T22:36:18.788Z,18.70
2017-09-26T22:38:45.056Z,16.33
2017-09-26T22:41:11.293Z,18.77
2017-09-26T22:43:37.531Z,30.37
2017-09-26T22:46:03.829Z,23.33
2017-09-26T22:48:30.056Z,13.53
2017-09-26T22:50:56.294Z,21.37
2017-09-26T22:53:22.581Z,18.37
2017-09-26T22:55:48.834Z,17.30
2017-09-26T22:58:15.060Z,16.03
2017-09-26T23:00:41.312Z,21.33
2017-09-26T23:03:07.519Z,21.17
2017-09-26T23:05:33.741Z,29.20
2017-09-26T23:08:00.040Z,23.00
2017-09-26T23:10:26.283Z,19.53
2017-09-26T23:12:52.796Z,25.30
2017-09-26T23:15:19.077Z,16.90
2017-09-26T23:17:45.306Z,29.93
2017-09-26T23:20:11.530Z,33.80
2017-09-26T23:22:37.792Z,21.30
2017-09-26T23:25:04.020Z,17.50
2017-09-26T23:27:30.262Z,29.13
2017-09-26T23:29:56.525Z,22.00
2017-09-26T23:32:22.723Z,18.80
2017-09-26T23:34:48.939Z,28.93
2017-09-26T23:37:15.210Z,27.90
2017-09-26T23:39:41.418Z,30.97
2017-09-26T23:42:07.630Z,20.00
2017-09-26T23:44:33.890Z,29.63
2017-09-26T23:47:00.138Z,21.33
2017-09-26T23:49:26.370Z,13.50
2017-09-26T23:51:52.656Z,25.10
2017-09-26T23:54:18.895Z,22.20
2017-09-26T23:56:45.160Z,19.73
2017-09-26T23:59:11.491Z,18.27
